Terminal Aerodrome Forecast
Issued by NWS

Home | Current Version | Previous Version | Text Only | Print | Product List | Glossary On
Versions: 1 2 3 4 5 6 7 8 9 10 11 12 13 14 15 16 17 18 19 20 21 22 23 24 25 26 27 28 29 30 31 32 33 34
000
FTUS43 KSGF 070524
TAFBBG
TAF
KBBG 070524Z 0706/0806 VRB05KT P6SM BKN200
     FM071000 00000KT P6SM SCT110
     FM071300 09004KT P6SM BKN110
     FM080100 01006KT P6SM -SN OVC040
     FM080300 34006KT P6SM OVC040
     FM080500 34006KT P6SM BKN030=

USA.gov is the U.S. government's official web portal to all federal, state and local government web resources and services.